Swastika, Canada
Current Conditions -  °F | °C
As of 6:00 AM on Wednesday 26 Nov 2014 (Local Time) from CYXR Reporting Station
Broken Clouds Broken Clouds  
Wind Chill:   Ceiling: 2900
Heat Index: 16°   Visibility: 9mi
Dew Point: 12°   Wind: 5mph
Humidity: 86%   Direction: 220°SW
Pressure: 30.2"   Gusts: NA
Location:  48.1°N, 80.1°W
Report Text: CYXR 261100Z AUTO 22004KT 9SM BKN029 M09/M11 A3020 RMK SLP244
Loading
Personal Weather Stations






























Interactive Weather Map New forecast layout! Learn more

10-Day Weather Forecast

Advertisements
Track Severe Weather on mobile